This is the latest recevied weather packets stored in our database for station/object DL8GAK-13. If no packets are shown the sender has not sent any weather packets the latest 10 day(s).
| Time | Temp. | Humidity | Pressure | Rain* | Wind** | Luminosity | Snow |
|---|---|---|---|---|---|---|---|
| 1778088599 | 13.89° C | 65% | 1016.3 hPa | - | - | - | - |
| 1778087998 | 14.44° C | 65% | 1016.2 hPa | - | - | - | - |
| 1778087397 | 14.44° C | 65% | 1015.9 hPa | - | - | - | - |
| 1778086796 | 14.44° C | 65% | 1015.8 hPa | - | - | - | - |
| 1778086195 | 14.44° C | 65% | 1015.8 hPa | - | - | - | - |
| 1778085594 | 14.44° C | 65% | 1016 hPa | - | - | - | - |
| 1778084993 | 14.44° C | 65% | 1015.9 hPa | - | - | - | - |
| 1778084392 | 15° C | 65% | 1015.9 hPa | - | - | - | - |
| 1778083791 | 15° C | 65% | 1015.7 hPa | - | - | - | - |
| 1778083191 | 15° C | 65% | 1015.7 hPa | - | - | - | - |
| 1778082590 | 15° C | 64% | 1015.6 hPa | - | - | - | - |
| 1778081989 | 15.56° C | 63% | 1015.3 hPa | - | - | - | - |
| 1778081388 | 16.11° C | 63% | 1015.3 hPa | - | - | - | - |
| 1778080787 | 16.11° C | 63% | 1015 hPa | - | - | - | - |
| 1778080186 | 16.67° C | 62% | 1014.9 hPa | - | - | - | - |
| 1778079586 | 17.78° C | 59% | 1014.3 hPa | - | - | - | - |
| 1778078984 | 19.44° C | 56% | 1014.2 hPa | - | - | - | - |
| 1778078383 | 21.11° C | 56% | 1013.4 hPa | - | - | - | - |
| 1778077782 | 21.11° C | 55% | 1013.5 hPa | - | - | - | - |
| 1778077181 | 21.67° C | 57% | 1013.5 hPa | - | - | - | - |
| 1778076580 | 20.56° C | 61% | 1013.5 hPa | - | - | - | - |
| 1778075979 | 18.89° C | 65% | 1013.5 hPa | - | - | - | - |
| 1778075378 | 17.78° C | 68% | 1013.5 hPa | - | - | - | - |
| 1778074777 | 17.22° C | 63% | 1013.5 hPa | - | - | - | - |
| 1778074176 | 17.22° C | 60% | 1014.3 hPa | - | - | - | - |
* Rain since midnight (hover to see other rain measurements)
** Current wind speed in m/s (hover to see current wind gust speed)